sensor_id;sensor_type;location;lat;lon;timestamp;P1;durP1;ratioP1;P2;durP2;ratioP2
58484;SDS011;44268;43.138;0.072;2024-02-21T00:02:10;1.92;;;1.90;;
58484;SDS011;44268;43.138;0.072;2024-02-21T00:04:36;1.30;;;0.85;;
58484;SDS011;44268;43.138;0.072;2024-02-21T00:07:03;1.77;;;1.77;;
58484;SDS011;44268;43.138;0.072;2024-02-21T00:09:29;0.90;;;0.90;;
58484;SDS011;44268;43.138;0.072;2024-02-21T00:11:55;3.30;;;3.10;;
58484;SDS011;44268;43.138;0.072;2024-02-21T00:14:23;1.42;;;1.35;;
58484;SDS011;44268;43.138;0.072;2024-02-21T00:16:49;0.50;;;0.50;;
58484;SDS011;44268;43.138;0.072;2024-02-21T00:19:15;0.50;;;0.50;;
58484;SDS011;44268;43.138;0.072;2024-02-21T00:21:41;7.78;;;3.53;;
58484;SDS011;44268;43.138;0.072;2024-02-21T00:24:07;9.35;;;6.60;;
58484;SDS011;44268;43.138;0.072;2024-02-21T00:26:33;7.68;;;5.68;;
58484;SDS011;44268;43.138;0.072;2024-02-21T00:28:59;1.75;;;1.75;;
58484;SDS011;44268;43.138;0.072;2024-02-21T00:31:25;1.20;;;1.20;;
58484;SDS011;44268;43.138;0.072;2024-02-21T00:33:51;0.95;;;0.95;;
58484;SDS011;44268;43.138;0.072;2024-02-21T00:36:17;0.65;;;0.65;;
58484;SDS011;44268;43.138;0.072;2024-02-21T00:38:43;5.05;;;3.17;;
58484;SDS011;44268;43.138;0.072;2024-02-21T00:41:09;0.80;;;0.80;;
58484;SDS011;44268;43.138;0.072;2024-02-21T00:43:35;0.77;;;0.77;;
58484;SDS011;44268;43.138;0.072;2024-02-21T00:46:02;1.65;;;1.65;;
58484;SDS011;44268;43.138;0.072;2024-02-21T00:48:28;1.20;;;1.20;;
58484;SDS011;44268;43.138;0.072;2024-02-21T00:50:54;0.80;;;0.80;;
58484;SDS011;44268;43.138;0.072;2024-02-21T00:53:20;0.60;;;0.60;;
58484;SDS011;44268;43.138;0.072;2024-02-21T00:55:46;0.90;;;0.90;;
58484;SDS011;44268;43.138;0.072;2024-02-21T00:58:12;0.50;;;0.50;;
58484;SDS011;44268;43.138;0.072;2024-02-21T01:00:38;0.50;;;0.50;;
58484;SDS011;44268;43.138;0.072;2024-02-21T01:03:04;0.60;;;0.60;;
58484;SDS011;44268;43.138;0.072;2024-02-21T01:05:30;0.70;;;0.70;;
58484;SDS011;44268;43.138;0.072;2024-02-21T01:07:56;0.57;;;0.57;;
58484;SDS011;44268;43.138;0.072;2024-02-21T01:10:22;0.70;;;0.70;;
58484;SDS011;44268;43.138;0.072;2024-02-21T01:12:48;0.50;;;0.50;;
58484;SDS011;44268;43.138;0.072;2024-02-21T01:15:14;0.70;;;0.70;;
58484;SDS011;44268;43.138;0.072;2024-02-21T01:17:40;0.73;;;0.73;;
58484;SDS011;44268;43.138;0.072;2024-02-21T01:20:06;0.93;;;0.93;;
58484;SDS011;44268;43.138;0.072;2024-02-21T01:22:33;2.85;;;2.67;;
58484;SDS011;44268;43.138;0.072;2024-02-21T01:24:59;0.77;;;0.77;;
58484;SDS011;44268;43.138;0.072;2024-02-21T01:27:25;0.73;;;0.73;;
58484;SDS011;44268;43.138;0.072;2024-02-21T01:29:51;1.15;;;1.15;;
58484;SDS011;44268;43.138;0.072;2024-02-21T01:32:17;0.52;;;0.52;;
58484;SDS011;44268;43.138;0.072;2024-02-21T01:34:43;0.40;;;0.40;;
58484;SDS011;44268;43.138;0.072;2024-02-21T01:37:09;1.30;;;1.30;;
58484;SDS011;44268;43.138;0.072;2024-02-21T01:39:35;0.55;;;0.55;;
58484;SDS011;44268;43.138;0.072;2024-02-21T01:42:01;0.65;;;0.65;;
58484;SDS011;44268;43.138;0.072;2024-02-21T01:44:27;0.70;;;0.70;;
58484;SDS011;44268;43.138;0.072;2024-02-21T01:46:53;0.40;;;0.40;;
58484;SDS011;44268;43.138;0.072;2024-02-21T01:49:19;0.40;;;0.40;;
58484;SDS011;44268;43.138;0.072;2024-02-21T01:51:46;0.40;;;0.40;;
58484;SDS011;44268;43.138;0.072;2024-02-21T01:54:13;0.40;;;0.40;;
58484;SDS011;44268;43.138;0.072;2024-02-21T01:56:39;0.50;;;0.50;;
58484;SDS011;44268;43.138;0.072;2024-02-21T01:59:06;0.30;;;0.30;;
58484;SDS011;44268;43.138;0.072;2024-02-21T02:01:32;0.30;;;0.30;;
58484;SDS011;44268;43.138;0.072;2024-02-21T02:03:58;0.50;;;0.50;;
58484;SDS011;44268;43.138;0.072;2024-02-21T02:06:25;0.45;;;0.45;;
58484;SDS011;44268;43.138;0.072;2024-02-21T02:08:51;1.52;;;1.52;;
58484;SDS011;44268;43.138;0.072;2024-02-21T02:11:17;1.38;;;1.27;;
58484;SDS011;44268;43.138;0.072;2024-02-21T02:13:43;1.13;;;1.13;;
58484;SDS011;44268;43.138;0.072;2024-02-21T02:16:09;0.98;;;0.60;;
58484;SDS011;44268;43.138;0.072;2024-02-21T02:18:36;0.40;;;0.40;;
58484;SDS011;44268;43.138;0.072;2024-02-21T02:21:03;0.82;;;0.82;;
58484;SDS011;44268;43.138;0.072;2024-02-21T02:23:30;0.60;;;0.60;;
58484;SDS011;44268;43.138;0.072;2024-02-21T02:25:56;0.40;;;0.40;;
58484;SDS011;44268;43.138;0.072;2024-02-21T02:28:22;0.40;;;0.40;;
58484;SDS011;44268;43.138;0.072;2024-02-21T02:30:49;0.35;;;0.35;;
58484;SDS011;44268;43.138;0.072;2024-02-21T02:33:15;0.40;;;0.40;;
58484;SDS011;44268;43.138;0.072;2024-02-21T02:35:44;0.50;;;0.50;;
58484;SDS011;44268;43.138;0.072;2024-02-21T02:38:10;0.30;;;0.30;;
58484;SDS011;44268;43.138;0.072;2024-02-21T02:40:38;0.40;;;0.40;;
58484;SDS011;44268;43.138;0.072;2024-02-21T02:43:05;0.40;;;0.40;;
58484;SDS011;44268;43.138;0.072;2024-02-21T02:45:32;0.50;;;0.50;;
58484;SDS011;44268;43.138;0.072;2024-02-21T02:47:58;0.70;;;0.70;;
58484;SDS011;44268;43.138;0.072;2024-02-21T02:50:25;0.40;;;0.40;;
58484;SDS011;44268;43.138;0.072;2024-02-21T02:52:51;1.08;;;1.08;;
58484;SDS011;44268;43.138;0.072;2024-02-21T02:55:17;0.40;;;0.40;;
58484;SDS011;44268;43.138;0.072;2024-02-21T02:57:43;0.50;;;0.50;;
58484;SDS011;44268;43.138;0.072;2024-02-21T03:00:13;0.40;;;0.40;;
58484;SDS011;44268;43.138;0.072;2024-02-21T03:02:40;0.40;;;0.40;;
58484;SDS011;44268;43.138;0.072;2024-02-21T03:05:16;0.50;;;0.50;;
58484;SDS011;44268;43.138;0.072;2024-02-21T03:07:42;0.40;;;0.40;;
58484;SDS011;44268;43.138;0.072;2024-02-21T03:10:08;0.40;;;0.40;;
58484;SDS011;44268;43.138;0.072;2024-02-21T03:12:35;0.40;;;0.40;;
58484;SDS011;44268;43.138;0.072;2024-02-21T03:15:01;0.40;;;0.40;;
58484;SDS011;44268;43.138;0.072;2024-02-21T03:17:27;0.30;;;0.30;;
58484;SDS011;44268;43.138;0.072;2024-02-21T03:19:53;0.50;;;0.50;;
58484;SDS011;44268;43.138;0.072;2024-02-21T03:22:20;0.40;;;0.40;;
58484;SDS011;44268;43.138;0.072;2024-02-21T03:24:46;0.40;;;0.40;;
58484;SDS011;44268;43.138;0.072;2024-02-21T03:27:12;0.50;;;0.50;;
58484;SDS011;44268;43.138;0.072;2024-02-21T03:29:38;0.98;;;0.98;;
58484;SDS011;44268;43.138;0.072;2024-02-21T03:32:04;0.40;;;0.40;;
58484;SDS011;44268;43.138;0.072;2024-02-21T03:34:30;0.40;;;0.40;;
58484;SDS011;44268;43.138;0.072;2024-02-21T03:36:56;0.40;;;0.40;;
58484;SDS011;44268;43.138;0.072;2024-02-21T03:39:24;0.40;;;0.40;;
58484;SDS011;44268;43.138;0.072;2024-02-21T03:41:50;0.40;;;0.40;;
58484;SDS011;44268;43.138;0.072;2024-02-21T03:44:16;0.50;;;0.50;;
58484;SDS011;44268;43.138;0.072;2024-02-21T03:46:42;0.40;;;0.40;;
58484;SDS011;44268;43.138;0.072;2024-02-21T03:49:08;0.95;;;0.95;;
58484;SDS011;44268;43.138;0.072;2024-02-21T03:51:34;0.50;;;0.50;;
58484;SDS011;44268;43.138;0.072;2024-02-21T03:54:01;0.40;;;0.40;;
58484;SDS011;44268;43.138;0.072;2024-02-21T03:56:27;0.88;;;0.88;;
58484;SDS011;44268;43.138;0.072;2024-02-21T03:58:53;0.50;;;0.50;;
58484;SDS011;44268;43.138;0.072;2024-02-21T04:01:19;0.40;;;0.40;;
58484;SDS011;44268;43.138;0.072;2024-02-21T04:03:45;1.15;;;1.15;;
58484;SDS011;44268;43.138;0.072;2024-02-21T04:06:11;0.95;;;0.95;;
58484;SDS011;44268;43.138;0.072;2024-02-21T04:08:37;0.50;;;0.50;;
58484;SDS011;44268;43.138;0.072;2024-02-21T04:11:03;0.50;;;0.50;;
58484;SDS011;44268;43.138;0.072;2024-02-21T04:13:29;0.50;;;0.50;;
58484;SDS011;44268;43.138;0.072;2024-02-21T04:15:55;0.50;;;0.50;;
58484;SDS011;44268;43.138;0.072;2024-02-21T04:18:21;0.50;;;0.50;;
58484;SDS011;44268;43.138;0.072;2024-02-21T04:20:48;0.60;;;0.60;;
58484;SDS011;44268;43.138;0.072;2024-02-21T04:23:14;0.50;;;0.50;;
58484;SDS011;44268;43.138;0.072;2024-02-21T04:25:40;0.50;;;0.50;;
58484;SDS011;44268;43.138;0.072;2024-02-21T04:28:06;0.50;;;0.50;;
58484;SDS011;44268;43.138;0.072;2024-02-21T04:30:32;0.55;;;0.55;;
58484;SDS011;44268;43.138;0.072;2024-02-21T04:32:58;0.50;;;0.50;;
58484;SDS011;44268;43.138;0.072;2024-02-21T04:35:24;0.47;;;0.47;;
58484;SDS011;44268;43.138;0.072;2024-02-21T04:37:50;0.50;;;0.50;;
58484;SDS011;44268;43.138;0.072;2024-02-21T04:40:16;0.98;;;0.98;;
58484;SDS011;44268;43.138;0.072;2024-02-21T04:42:42;0.60;;;0.60;;
58484;SDS011;44268;43.138;0.072;2024-02-21T04:45:08;0.50;;;0.50;;
58484;SDS011;44268;43.138;0.072;2024-02-21T04:47:34;0.50;;;0.50;;
58484;SDS011;44268;43.138;0.072;2024-02-21T04:50:00;0.57;;;0.57;;
58484;SDS011;44268;43.138;0.072;2024-02-21T04:52:26;0.47;;;0.47;;
58484;SDS011;44268;43.138;0.072;2024-02-21T04:54:52;0.60;;;0.60;;
58484;SDS011;44268;43.138;0.072;2024-02-21T04:57:18;0.47;;;0.47;;
58484;SDS011;44268;43.138;0.072;2024-02-21T04:59:44;0.50;;;0.50;;
58484;SDS011;44268;43.138;0.072;2024-02-21T05:02:12;0.70;;;0.70;;
58484;SDS011;44268;43.138;0.072;2024-02-21T05:04:38;0.50;;;0.50;;
58484;SDS011;44268;43.138;0.072;2024-02-21T05:07:06;0.40;;;0.40;;
58484;SDS011;44268;43.138;0.072;2024-02-21T05:09:32;0.50;;;0.50;;
58484;SDS011;44268;43.138;0.072;2024-02-21T05:11:58;0.50;;;0.50;;
58484;SDS011;44268;43.138;0.072;2024-02-21T05:14:25;0.50;;;0.50;;
58484;SDS011;44268;43.138;0.072;2024-02-21T05:16:52;0.65;;;0.65;;
58484;SDS011;44268;43.138;0.072;2024-02-21T05:19:18;0.50;;;0.50;;
58484;SDS011;44268;43.138;0.072;2024-02-21T05:21:44;0.50;;;0.50;;
58484;SDS011;44268;43.138;0.072;2024-02-21T05:24:10;0.50;;;0.50;;
58484;SDS011;44268;43.138;0.072;2024-02-21T05:26:36;0.55;;;0.55;;
58484;SDS011;44268;43.138;0.072;2024-02-21T05:29:02;0.50;;;0.50;;
58484;SDS011;44268;43.138;0.072;2024-02-21T05:34:13;0.40;;;0.40;;
58484;SDS011;44268;43.138;0.072;2024-02-21T05:36:39;0.50;;;0.50;;
58484;SDS011;44268;43.138;0.072;2024-02-21T05:39:05;0.50;;;0.50;;
58484;SDS011;44268;43.138;0.072;2024-02-21T05:41:31;1.73;;;0.90;;
58484;SDS011;44268;43.138;0.072;2024-02-21T05:43:57;0.50;;;0.50;;
58484;SDS011;44268;43.138;0.072;2024-02-21T05:46:23;0.40;;;0.40;;
58484;SDS011;44268;43.138;0.072;2024-02-21T05:48:49;0.40;;;0.40;;
58484;SDS011;44268;43.138;0.072;2024-02-21T05:51:15;0.40;;;0.40;;
58484;SDS011;44268;43.138;0.072;2024-02-21T05:53:41;0.40;;;0.40;;
58484;SDS011;44268;43.138;0.072;2024-02-21T05:56:11;0.40;;;0.40;;
58484;SDS011;44268;43.138;0.072;2024-02-21T05:58:37;0.50;;;0.50;;
58484;SDS011;44268;43.138;0.072;2024-02-21T06:01:03;0.40;;;0.40;;
58484;SDS011;44268;43.138;0.072;2024-02-21T06:03:30;0.50;;;0.50;;
58484;SDS011;44268;43.138;0.072;2024-02-21T06:05:56;0.40;;;0.40;;
58484;SDS011;44268;43.138;0.072;2024-02-21T06:08:22;0.40;;;0.40;;
58484;SDS011;44268;43.138;0.072;2024-02-21T06:10:48;0.40;;;0.40;;
58484;SDS011;44268;43.138;0.072;2024-02-21T06:13:17;1.60;;;1.50;;
58484;SDS011;44268;43.138;0.072;2024-02-21T06:15:43;0.40;;;0.40;;
58484;SDS011;44268;43.138;0.072;2024-02-21T06:18:09;0.40;;;0.40;;
58484;SDS011;44268;43.138;0.072;2024-02-21T06:20:35;0.40;;;0.40;;
58484;SDS011;44268;43.138;0.072;2024-02-21T06:23:01;0.47;;;0.47;;
58484;SDS011;44268;43.138;0.072;2024-02-21T06:25:27;0.75;;;0.75;;
58484;SDS011;44268;43.138;0.072;2024-02-21T06:27:53;0.50;;;0.50;;
58484;SDS011;44268;43.138;0.072;2024-02-21T06:30:19;0.63;;;0.63;;
58484;SDS011;44268;43.138;0.072;2024-02-21T06:32:45;0.40;;;0.40;;
58484;SDS011;44268;43.138;0.072;2024-02-21T06:35:11;0.40;;;0.40;;
58484;SDS011;44268;43.138;0.072;2024-02-21T06:37:37;0.50;;;0.50;;
58484;SDS011;44268;43.138;0.072;2024-02-21T06:40:04;0.40;;;0.40;;
58484;SDS011;44268;43.138;0.072;2024-02-21T06:42:30;0.50;;;0.50;;
58484;SDS011;44268;43.138;0.072;2024-02-21T06:44:56;0.40;;;0.40;;
58484;SDS011;44268;43.138;0.072;2024-02-21T06:47:22;0.40;;;0.40;;
58484;SDS011;44268;43.138;0.072;2024-02-21T06:49:49;0.40;;;0.40;;
58484;SDS011;44268;43.138;0.072;2024-02-21T06:52:17;0.85;;;0.85;;
58484;SDS011;44268;43.138;0.072;2024-02-21T06:54:45;0.40;;;0.40;;
58484;SDS011;44268;43.138;0.072;2024-02-21T06:57:12;0.40;;;0.40;;
58484;SDS011;44268;43.138;0.072;2024-02-21T06:59:38;0.50;;;0.50;;
58484;SDS011;44268;43.138;0.072;2024-02-21T07:02:04;0.40;;;0.40;;
58484;SDS011;44268;43.138;0.072;2024-02-21T07:04:30;0.40;;;0.40;;
58484;SDS011;44268;43.138;0.072;2024-02-21T07:06:56;0.40;;;0.40;;
58484;SDS011;44268;43.138;0.072;2024-02-21T07:09:22;0.50;;;0.50;;
58484;SDS011;44268;43.138;0.072;2024-02-21T07:11:48;0.50;;;0.50;;
58484;SDS011;44268;43.138;0.072;2024-02-21T07:14:14;0.40;;;0.40;;
58484;SDS011;44268;43.138;0.072;2024-02-21T07:16:40;0.40;;;0.40;;
58484;SDS011;44268;43.138;0.072;2024-02-21T07:19:07;0.40;;;0.40;;
58484;SDS011;44268;43.138;0.072;2024-02-21T07:21:33;0.70;;;0.70;;
58484;SDS011;44268;43.138;0.072;2024-02-21T07:23:59;0.40;;;0.40;;
58484;SDS011;44268;43.138;0.072;2024-02-21T07:26:25;0.45;;;0.45;;
58484;SDS011;44268;43.138;0.072;2024-02-21T07:28:51;0.40;;;0.40;;
58484;SDS011;44268;43.138;0.072;2024-02-21T07:31:17;1.02;;;1.02;;
58484;SDS011;44268;43.138;0.072;2024-02-21T07:33:43;0.60;;;0.60;;
58484;SDS011;44268;43.138;0.072;2024-02-21T07:36:10;0.40;;;0.40;;
58484;SDS011;44268;43.138;0.072;2024-02-21T07:38:36;0.50;;;0.50;;
58484;SDS011;44268;43.138;0.072;2024-02-21T07:41:02;0.40;;;0.40;;
58484;SDS011;44268;43.138;0.072;2024-02-21T07:43:29;0.40;;;0.40;;
58484;SDS011;44268;43.138;0.072;2024-02-21T07:45:55;0.40;;;0.40;;
58484;SDS011;44268;43.138;0.072;2024-02-21T07:48:21;0.40;;;0.40;;
58484;SDS011;44268;43.138;0.072;2024-02-21T07:50:51;0.50;;;0.50;;
58484;SDS011;44268;43.138;0.072;2024-02-21T07:53:17;0.40;;;0.40;;
58484;SDS011;44268;43.138;0.072;2024-02-21T07:55:44;0.40;;;0.40;;
58484;SDS011;44268;43.138;0.072;2024-02-21T07:58:10;0.40;;;0.40;;
58484;SDS011;44268;43.138;0.072;2024-02-21T08:00:36;0.50;;;0.50;;
58484;SDS011;44268;43.138;0.072;2024-02-21T08:03:02;0.40;;;0.40;;
58484;SDS011;44268;43.138;0.072;2024-02-21T08:05:28;0.30;;;0.30;;
58484;SDS011;44268;43.138;0.072;2024-02-21T08:07:55;0.30;;;0.30;;
58484;SDS011;44268;43.138;0.072;2024-02-21T08:10:21;0.40;;;0.40;;
58484;SDS011;44268;43.138;0.072;2024-02-21T08:12:47;0.30;;;0.30;;
58484;SDS011;44268;43.138;0.072;2024-02-21T08:15:13;0.30;;;0.30;;
58484;SDS011;44268;43.138;0.072;2024-02-21T08:17:40;0.30;;;0.30;;
58484;SDS011;44268;43.138;0.072;2024-02-21T08:20:06;0.30;;;0.30;;
58484;SDS011;44268;43.138;0.072;2024-02-21T08:22:32;0.30;;;0.30;;
58484;SDS011;44268;43.138;0.072;2024-02-21T08:24:58;0.20;;;0.20;;
58484;SDS011;44268;43.138;0.072;2024-02-21T08:27:24;0.20;;;0.20;;
58484;SDS011;44268;43.138;0.072;2024-02-21T08:29:50;0.30;;;0.30;;
58484;SDS011;44268;43.138;0.072;2024-02-21T08:32:16;0.20;;;0.20;;
58484;SDS011;44268;43.138;0.072;2024-02-21T08:34:42;0.20;;;0.20;;
58484;SDS011;44268;43.138;0.072;2024-02-21T08:37:08;0.20;;;0.20;;
58484;SDS011;44268;43.138;0.072;2024-02-21T08:39:35;0.30;;;0.30;;
58484;SDS011;44268;43.138;0.072;2024-02-21T08:42:01;0.20;;;0.20;;
58484;SDS011;44268;43.138;0.072;2024-02-21T08:44:27;0.20;;;0.20;;
58484;SDS011;44268;43.138;0.072;2024-02-21T08:46:54;0.20;;;0.20;;
58484;SDS011;44268;43.138;0.072;2024-02-21T08:49:20;0.30;;;0.30;;
58484;SDS011;44268;43.138;0.072;2024-02-21T08:51:46;0.30;;;0.30;;
58484;SDS011;44268;43.138;0.072;2024-02-21T08:54:12;0.50;;;0.50;;
58484;SDS011;44268;43.138;0.072;2024-02-21T08:56:38;0.28;;;0.28;;
58484;SDS011;44268;43.138;0.072;2024-02-21T08:59:04;0.20;;;0.20;;
58484;SDS011;44268;43.138;0.072;2024-02-21T09:01:30;0.30;;;0.30;;
58484;SDS011;44268;43.138;0.072;2024-02-21T09:03:56;0.10;;;0.10;;
58484;SDS011;44268;43.138;0.072;2024-02-21T09:06:23;0.20;;;0.20;;
58484;SDS011;44268;43.138;0.072;2024-02-21T09:08:49;0.10;;;0.10;;
58484;SDS011;44268;43.138;0.072;2024-02-21T09:11:15;0.20;;;0.20;;
58484;SDS011;44268;43.138;0.072;2024-02-21T09:13:41;0.15;;;0.15;;
58484;SDS011;44268;43.138;0.072;2024-02-21T09:16:07;0.10;;;0.10;;
58484;SDS011;44268;43.138;0.072;2024-02-21T09:18:34;0.55;;;0.55;;
58484;SDS011;44268;43.138;0.072;2024-02-21T09:21:00;0.10;;;0.10;;
58484;SDS011;44268;43.138;0.072;2024-02-21T09:23:26;0.20;;;0.20;;
58484;SDS011;44268;43.138;0.072;2024-02-21T09:25:52;0.10;;;0.10;;
58484;SDS011;44268;43.138;0.072;2024-02-21T09:28:20;0.10;;;0.10;;
58484;SDS011;44268;43.138;0.072;2024-02-21T09:30:46;0.10;;;0.10;;
58484;SDS011;44268;43.138;0.072;2024-02-21T09:33:12;0.10;;;0.10;;
58484;SDS011;44268;43.138;0.072;2024-02-21T09:35:38;0.10;;;0.10;;
58484;SDS011;44268;43.138;0.072;2024-02-21T09:38:04;0.20;;;0.20;;
58484;SDS011;44268;43.138;0.072;2024-02-21T09:40:30;0.10;;;0.10;;
58484;SDS011;44268;43.138;0.072;2024-02-21T09:43:06;0.25;;;0.25;;
58484;SDS011;44268;43.138;0.072;2024-02-21T09:45:32;0.20;;;0.20;;
58484;SDS011;44268;43.138;0.072;2024-02-21T09:50:28;0.10;;;0.10;;
58484;SDS011;44268;43.138;0.072;2024-02-21T09:52:54;0.10;;;0.10;;
58484;SDS011;44268;43.138;0.072;2024-02-21T09:55:21;0.10;;;0.10;;
58484;SDS011;44268;43.138;0.072;2024-02-21T09:57:48;0.10;;;0.10;;
58484;SDS011;44268;43.138;0.072;2024-02-21T10:00:15;0.10;;;0.10;;
58484;SDS011;44268;43.138;0.072;2024-02-21T10:02:47;0.17;;;0.17;;
58484;SDS011;44268;43.138;0.072;2024-02-21T10:05:14;0.10;;;0.10;;
58484;SDS011;44268;43.138;0.072;2024-02-21T10:07:40;0.10;;;0.10;;
58484;SDS011;44268;43.138;0.072;2024-02-21T10:10:06;0.10;;;0.10;;
58484;SDS011;44268;43.138;0.072;2024-02-21T10:12:33;0.10;;;0.10;;
58484;SDS011;44268;43.138;0.072;2024-02-21T10:15:05;0.10;;;0.10;;
58484;SDS011;44268;43.138;0.072;2024-02-21T10:17:32;0.35;;;0.35;;
58484;SDS011;44268;43.138;0.072;2024-02-21T10:20:08;0.13;;;0.10;;
58484;SDS011;44268;43.138;0.072;2024-02-21T10:22:34;0.20;;;0.20;;
58484;SDS011;44268;43.138;0.072;2024-02-21T10:25:08;0.10;;;0.10;;
58484;SDS011;44268;43.138;0.072;2024-02-21T10:27:34;0.10;;;0.10;;
58484;SDS011;44268;43.138;0.072;2024-02-21T10:30:00;0.15;;;0.15;;
58484;SDS011;44268;43.138;0.072;2024-02-21T10:32:27;0.30;;;0.30;;
58484;SDS011;44268;43.138;0.072;2024-02-21T10:35:01;0.38;;;0.38;;
58484;SDS011;44268;43.138;0.072;2024-02-21T10:37:29;0.20;;;0.20;;
58484;SDS011;44268;43.138;0.072;2024-02-21T10:39:55;0.10;;;0.10;;
58484;SDS011;44268;43.138;0.072;2024-02-21T10:42:22;0.20;;;0.20;;
58484;SDS011;44268;43.138;0.072;2024-02-21T10:44:50;0.10;;;0.10;;
58484;SDS011;44268;43.138;0.072;2024-02-21T10:47:17;0.10;;;0.10;;
58484;SDS011;44268;43.138;0.072;2024-02-21T10:49:46;0.13;;;0.13;;
58484;SDS011;44268;43.138;0.072;2024-02-21T10:55:04;0.20;;;0.20;;
58484;SDS011;44268;43.138;0.072;2024-02-21T10:59:56;0.10;;;0.10;;
58484;SDS011;44268;43.138;0.072;2024-02-21T11:02:24;0.20;;;0.20;;
58484;SDS011;44268;43.138;0.072;2024-02-21T11:04:50;0.20;;;0.20;;
58484;SDS011;44268;43.138;0.072;2024-02-21T11:07:18;0.20;;;0.20;;
58484;SDS011;44268;43.138;0.072;2024-02-21T11:09:53;0.20;;;0.20;;
58484;SDS011;44268;43.138;0.072;2024-02-21T11:12:23;0.20;;;0.20;;
58484;SDS011;44268;43.138;0.072;2024-02-21T11:14:50;1.08;;;1.08;;
58484;SDS011;44268;43.138;0.072;2024-02-21T11:17:16;0.22;;;0.22;;
58484;SDS011;44268;43.138;0.072;2024-02-21T11:19:42;0.10;;;0.10;;
58484;SDS011;44268;43.138;0.072;2024-02-21T11:22:15;0.10;;;0.10;;
58484;SDS011;44268;43.138;0.072;2024-02-21T11:24:41;0.17;;;0.17;;
58484;SDS011;44268;43.138;0.072;2024-02-21T11:27:21;0.10;;;0.10;;
58484;SDS011;44268;43.138;0.072;2024-02-21T11:29:49;0.25;;;0.25;;
58484;SDS011;44268;43.138;0.072;2024-02-21T11:32:20;0.10;;;0.10;;
58484;SDS011;44268;43.138;0.072;2024-02-21T11:34:53;0.10;;;0.10;;
58484;SDS011;44268;43.138;0.072;2024-02-21T11:37:19;0.10;;;0.10;;
58484;SDS011;44268;43.138;0.072;2024-02-21T11:39:46;0.30;;;0.30;;
58484;SDS011;44268;43.138;0.072;2024-02-21T11:42:13;0.30;;;0.30;;
58484;SDS011;44268;43.138;0.072;2024-02-21T11:44:39;0.68;;;0.68;;
58484;SDS011;44268;43.138;0.072;2024-02-21T11:47:07;0.10;;;0.10;;
58484;SDS011;44268;43.138;0.072;2024-02-21T11:49:38;0.77;;;0.77;;
58484;SDS011;44268;43.138;0.072;2024-02-21T11:52:07;0.10;;;0.10;;
58484;SDS011;44268;43.138;0.072;2024-02-21T11:54:33;0.20;;;0.20;;
58484;SDS011;44268;43.138;0.072;2024-02-21T11:56:59;0.30;;;0.30;;
58484;SDS011;44268;43.138;0.072;2024-02-21T11:59:26;0.20;;;0.20;;
58484;SDS011;44268;43.138;0.072;2024-02-21T12:01:52;0.10;;;0.10;;
58484;SDS011;44268;43.138;0.072;2024-02-21T12:04:19;0.95;;;0.95;;
58484;SDS011;44268;43.138;0.072;2024-02-21T12:06:46;0.77;;;0.77;;
58484;SDS011;44268;43.138;0.072;2024-02-21T12:09:18;0.28;;;0.28;;
58484;SDS011;44268;43.138;0.072;2024-02-21T12:11:44;0.10;;;0.10;;
58484;SDS011;44268;43.138;0.072;2024-02-21T12:14:11;1.55;;;0.30;;
58484;SDS011;44268;43.138;0.072;2024-02-21T12:16:41;0.13;;;0.13;;
58484;SDS011;44268;43.138;0.072;2024-02-21T12:19:12;0.20;;;0.20;;
58484;SDS011;44268;43.138;0.072;2024-02-21T12:21:38;0.10;;;0.10;;
58484;SDS011;44268;43.138;0.072;2024-02-21T12:24:21;0.15;;;0.15;;
58484;SDS011;44268;43.138;0.072;2024-02-21T12:26:47;0.65;;;0.65;;
58484;SDS011;44268;43.138;0.072;2024-02-21T12:29:13;0.10;;;0.10;;
58484;SDS011;44268;43.138;0.072;2024-02-21T12:31:40;0.50;;;0.50;;
58484;SDS011;44268;43.138;0.072;2024-02-21T12:34:06;0.47;;;0.47;;
58484;SDS011;44268;43.138;0.072;2024-02-21T12:36:35;0.10;;;0.10;;
58484;SDS011;44268;43.138;0.072;2024-02-21T12:39:01;0.45;;;0.45;;
58484;SDS011;44268;43.138;0.072;2024-02-21T12:43:57;0.10;;;0.10;;
58484;SDS011;44268;43.138;0.072;2024-02-21T12:46:23;0.40;;;0.40;;
58484;SDS011;44268;43.138;0.072;2024-02-21T12:48:49;0.10;;;0.10;;
58484;SDS011;44268;43.138;0.072;2024-02-21T12:51:16;0.10;;;0.10;;
58484;SDS011;44268;43.138;0.072;2024-02-21T12:53:46;0.10;;;0.10;;
58484;SDS011;44268;43.138;0.072;2024-02-21T12:56:12;0.10;;;0.10;;
58484;SDS011;44268;43.138;0.072;2024-02-21T12:58:38;0.10;;;0.10;;
58484;SDS011;44268;43.138;0.072;2024-02-21T13:01:04;0.10;;;0.10;;
58484;SDS011;44268;43.138;0.072;2024-02-21T13:03:30;0.20;;;0.20;;
58484;SDS011;44268;43.138;0.072;2024-02-21T13:05:56;0.28;;;0.28;;
58484;SDS011;44268;43.138;0.072;2024-02-21T13:08:22;0.08;;;0.08;;
58484;SDS011;44268;43.138;0.072;2024-02-21T13:10:48;0.10;;;0.10;;
58484;SDS011;44268;43.138;0.072;2024-02-21T13:13:14;0.45;;;0.45;;
58484;SDS011;44268;43.138;0.072;2024-02-21T13:15:40;0.00;;;0.00;;
58484;SDS011;44268;43.138;0.072;2024-02-21T13:18:08;0.13;;;0.13;;
58484;SDS011;44268;43.138;0.072;2024-02-21T13:20:35;0.22;;;0.22;;
58484;SDS011;44268;43.138;0.072;2024-02-21T13:23:01;0.10;;;0.10;;
58484;SDS011;44268;43.138;0.072;2024-02-21T13:25:27;0.10;;;0.10;;
58484;SDS011;44268;43.138;0.072;2024-02-21T13:27:54;0.30;;;0.30;;
58484;SDS011;44268;43.138;0.072;2024-02-21T13:30:20;0.20;;;0.20;;
58484;SDS011;44268;43.138;0.072;2024-02-21T13:32:46;0.20;;;0.20;;
58484;SDS011;44268;43.138;0.072;2024-02-21T13:35:12;0.20;;;0.20;;
58484;SDS011;44268;43.138;0.072;2024-02-21T13:37:39;0.20;;;0.20;;
58484;SDS011;44268;43.138;0.072;2024-02-21T13:40:05;0.20;;;0.20;;
58484;SDS011;44268;43.138;0.072;2024-02-21T13:42:34;0.15;;;0.15;;
58484;SDS011;44268;43.138;0.072;2024-02-21T13:45:00;0.35;;;0.35;;
58484;SDS011;44268;43.138;0.072;2024-02-21T13:47:26;0.20;;;0.20;;
58484;SDS011;44268;43.138;0.072;2024-02-21T13:49:52;0.30;;;0.30;;
58484;SDS011;44268;43.138;0.072;2024-02-21T13:52:18;0.10;;;0.10;;
58484;SDS011;44268;43.138;0.072;2024-02-21T13:54:46;0.10;;;0.10;;
58484;SDS011;44268;43.138;0.072;2024-02-21T13:57:12;0.17;;;0.17;;
58484;SDS011;44268;43.138;0.072;2024-02-21T13:59:39;0.50;;;0.50;;
58484;SDS011;44268;43.138;0.072;2024-02-21T14:02:06;0.35;;;0.35;;
58484;SDS011;44268;43.138;0.072;2024-02-21T14:04:35;0.10;;;0.10;;
58484;SDS011;44268;43.138;0.072;2024-02-21T14:07:01;0.50;;;0.50;;
58484;SDS011;44268;43.138;0.072;2024-02-21T14:09:27;0.10;;;0.10;;
58484;SDS011;44268;43.138;0.072;2024-02-21T14:11:58;0.50;;;0.50;;
58484;SDS011;44268;43.138;0.072;2024-02-21T14:14:24;0.30;;;0.30;;
58484;SDS011;44268;43.138;0.072;2024-02-21T14:16:50;0.70;;;0.70;;
58484;SDS011;44268;43.138;0.072;2024-02-21T14:19:16;0.13;;;0.13;;
58484;SDS011;44268;43.138;0.072;2024-02-21T14:21:43;0.22;;;0.22;;
58484;SDS011;44268;43.138;0.072;2024-02-21T14:24:09;0.15;;;0.15;;
58484;SDS011;44268;43.138;0.072;2024-02-21T14:26:36;0.10;;;0.10;;
58484;SDS011;44268;43.138;0.072;2024-02-21T14:29:02;0.20;;;0.20;;
58484;SDS011;44268;43.138;0.072;2024-02-21T14:31:29;0.35;;;0.35;;
58484;SDS011;44268;43.138;0.072;2024-02-21T14:33:57;0.63;;;0.63;;
58484;SDS011;44268;43.138;0.072;2024-02-21T14:36:23;0.10;;;0.10;;
58484;SDS011;44268;43.138;0.072;2024-02-21T14:38:49;0.52;;;0.52;;
58484;SDS011;44268;43.138;0.072;2024-02-21T14:41:16;0.50;;;0.50;;
58484;SDS011;44268;43.138;0.072;2024-02-21T14:43:42;0.28;;;0.28;;
58484;SDS011;44268;43.138;0.072;2024-02-21T14:46:08;0.20;;;0.20;;
58484;SDS011;44268;43.138;0.072;2024-02-21T14:48:34;0.30;;;0.30;;
58484;SDS011;44268;43.138;0.072;2024-02-21T14:51:01;0.10;;;0.10;;
58484;SDS011;44268;43.138;0.072;2024-02-21T14:53:27;0.22;;;0.22;;
58484;SDS011;44268;43.138;0.072;2024-02-21T14:55:54;0.20;;;0.20;;
58484;SDS011;44268;43.138;0.072;2024-02-21T14:58:20;0.10;;;0.10;;